Time;durP1;ratioP1;P1;durP2;ratioP2;P2;SDS_P1;SDS_P2;PMS_P1;PMS_P2;Temp;Humidity;BMP_temperature;BMP_pressure;BME280_temperature;BME280_humidity;BME280_pressure;Samples;Min_cycle;Max_cycle;Signal;HPM_P1;HPM_P2
2022/05/26 00:01:39;;;;;;;6.35;3.47;;;11.60;99.90;;;;;;6246866;23;20140;-86
2022/05/26 00:04:05;;;;;;;4.68;4.15;;;11.50;99.90;;;;;;6221022;23;20170;-87
2022/05/26 00:06:32;;;;;;;8.02;3.38;;;11.50;99.90;;;;;;6246745;23;20160;-88
2022/05/26 00:08:59;;;;;;;5.97;3.95;;;11.40;99.90;;;;;;6246908;23;20144;-86
2022/05/26 00:11:31;;;;;;;6.30;3.80;;;11.50;99.90;;;;;;6246530;23;20167;-87
2022/05/26 00:14:01;;;;;;;9.10;5.50;;;11.50;99.90;;;;;;6246404;23;20195;-88
2022/05/26 00:16:27;;;;;;;13.27;7.85;;;11.60;99.90;;;;;;6246594;23;20136;-88
2022/05/26 00:18:53;;;;;;;8.23;5.53;;;11.60;99.90;;;;;;6246755;23;20175;-86
2022/05/26 00:21:19;;;;;;;9.10;6.43;;;11.70;99.90;;;;;;6220864;23;20166;-88
2022/05/26 00:23:45;;;;;;;12.77;7.82;;;11.70;99.90;;;;;;6246632;23;20143;-87
2022/05/26 00:26:10;;;;;;;14.10;8.95;;;11.80;99.90;;;;;;6192440;23;20163;-86
2022/05/26 00:28:36;;;;;;;12.02;7.10;;;11.90;99.90;;;;;;6192315;23;20230;-86
2022/05/26 00:31:02;;;;;;;10.48;6.90;;;11.90;99.90;;;;;;6192616;23;20549;-86
2022/05/26 00:33:28;;;;;;;13.30;8.25;;;11.90;99.90;;;;;;6192215;23;20825;-87
2022/05/26 00:35:53;;;;;;;10.93;6.88;;;11.90;99.90;;;;;;6186123;23;20622;-87
2022/05/26 00:38:19;;;;;;;9.38;5.85;;;12.00;99.90;;;;;;6198457;23;20721;-87
2022/05/26 00:40:46;;;;;;;15.93;9.52;;;12.10;99.90;;;;;;6190697;23;20166;-87
2022/05/26 00:43:12;;;;;;;10.18;6.82;;;12.10;99.90;;;;;;6217044;23;20160;-87
2022/05/26 00:46:22;;;;;;;11.55;6.93;;;12.10;99.90;;;;;;6190630;23;20160;-87
2022/05/26 00:48:56;;;;;;;10.20;6.00;;;12.10;99.90;;;;;;6095671;23;20163;-87
2022/05/26 00:51:31;;;;;;;12.32;7.85;;;12.10;99.90;;;;;;6095613;23;20205;-87
2022/05/26 00:54:01;;;;;;;16.55;9.40;;;12.10;99.90;;;;;;6170714;23;20159;-86
2022/05/26 00:56:42;;;;;;;11.15;7.63;;;12.10;99.90;;;;;;6216297;23;20588;-87
2022/05/26 00:59:26;;;;;;;13.35;9.02;;;12.20;99.90;;;;;;6217455;23;20573;-87
2022/05/26 01:01:53;;;;;;;13.75;8.40;;;12.20;99.90;;;;;;6217166;23;20140;-87
2022/05/26 01:04:24;;;;;;;13.75;8.90;;;12.20;99.90;;;;;;6217310;23;20223;-87
2022/05/26 01:06:59;;;;;;;15.98;10.93;;;11.90;99.90;;;;;;6217478;23;20162;-86
2022/05/26 01:09:25;;;;;;;13.98;9.02;;;12.30;99.90;;;;;;6217133;23;20144;-86
2022/05/26 01:11:50;;;;;;;14.95;9.80;;;12.30;99.90;;;;;;6165802;23;20662;-87
2022/05/26 01:14:22;;;;;;;10.55;7.47;;;12.30;99.90;;;;;;6189883;23;20207;-87
2022/05/26 01:17:12;;;;;;;14.88;7.55;;;12.30;99.90;;;;;;6198532;23;20170;-87
2022/05/26 01:20:08;;;;;;;11.52;8.18;;;12.40;99.90;;;;;;6200682;23;20183;-87
2022/05/26 01:22:55;;;;;;;11.15;6.90;;;12.40;99.90;;;;;;6194634;23;20159;-86
2022/05/26 01:25:49;;;;;;;16.20;9.23;;;12.40;99.90;;;;;;6190358;23;20155;-87
2022/05/26 01:28:43;;;;;;;15.27;9.02;;;12.40;99.90;;;;;;6190392;23;20517;-86
2022/05/26 01:31:48;;;;;;;22.48;10.50;;;12.30;99.90;;;;;;6210564;23;20166;-86
2022/05/26 01:34:31;;;;;;;15.88;9.35;;;12.30;99.90;;;;;;6190316;23;20156;-87
2022/05/26 01:37:21;;;;;;;15.32;8.90;;;12.40;99.90;;;;;;6190428;23;20160;-87
2022/05/26 01:39:56;;;;;;;14.73;9.60;;;12.30;99.90;;;;;;6216301;23;20156;-87
2022/05/26 01:42:44;;;;;;;14.20;9.27;;;12.30;99.90;;;;;;6190183;23;20174;-87
2022/05/26 01:45:31;;;;;;;8.40;6.28;;;12.20;99.90;;;;;;6190030;23;20170;-88
2022/05/26 01:48:33;;;;;;;6.80;4.95;;;12.10;99.90;;;;;;6216353;23;20208;-87
2022/05/26 01:51:11;;;;;;;8.20;6.05;;;12.00;99.90;;;;;;6196404;23;20183;-88
2022/05/26 01:54:03;;;;;;;7.70;5.38;;;12.00;99.90;;;;;;6216354;23;20190;-87
2022/05/26 01:56:37;;;;;;;8.73;4.85;;;11.90;99.90;;;;;;6195386;23;20170;-88
2022/05/26 01:59:12;;;;;;;9.07;5.95;;;11.80;99.90;;;;;;6189776;23;20166;-87
2022/05/26 02:01:43;;;;;;;6.47;5.22;;;11.70;99.90;;;;;;6189750;23;20198;-87
2022/05/26 02:04:32;;;;;;;8.50;5.15;;;11.80;99.90;;;;;;6189825;23;20144;-87
2022/05/26 02:07:07;;;;;;;7.30;5.57;;;11.80;99.90;;;;;;6216613;23;20477;-87
2022/05/26 02:09:41;;;;;;;9.38;6.07;;;11.90;99.90;;;;;;6216011;23;20132;-87
2022/05/26 02:12:18;;;;;;;10.65;7.20;;;11.70;99.90;;;;;;6216254;23;20172;-87
2022/05/26 02:14:49;;;;;;;11.32;6.43;;;11.70;99.90;;;;;;6189042;23;20253;-88
2022/05/26 02:17:22;;;;;;;9.05;5.57;;;11.60;99.90;;;;;;6216313;23;20147;-88
2022/05/26 02:19:59;;;;;;;8.85;5.65;;;11.60;99.90;;;;;;6190104;23;20171;-87
2022/05/26 02:22:31;;;;;;;7.95;5.90;;;11.60;99.90;;;;;;6190101;23;20163;-88
2022/05/26 02:25:02;;;;;;;7.43;5.30;;;11.60;99.90;;;;;;6216090;23;20137;-87
2022/05/26 02:27:28;;;;;;;11.13;5.85;;;11.60;99.90;;;;;;6216383;23;20575;-86
2022/05/26 02:29:56;;;;;;;8.52;5.63;;;11.60;99.90;;;;;;6217757;23;20156;-87
2022/05/26 02:32:27;;;;;;;8.95;6.00;;;11.60;99.90;;;;;;6233660;23;20183;-88
2022/05/26 02:34:57;;;;;;;8.75;5.70;;;11.60;99.90;;;;;;6194030;23;20144;-87
2022/05/26 02:37:25;;;;;;;13.63;6.18;;;11.60;99.90;;;;;;6216042;23;20148;-87
2022/05/26 02:39:51;;;;;;;11.05;6.55;;;11.60;99.90;;;;;;6215775;23;20152;-88
2022/05/26 02:42:18;;;;;;;9.82;6.00;;;11.60;99.90;;;;;;6164814;23;20167;-88
2022/05/26 02:44:45;;;;;;;9.88;6.25;;;11.60;99.90;;;;;;6188188;23;20156;-88
2022/05/26 02:47:25;;;;;;;10.27;6.20;;;11.60;99.90;;;;;;6189492;23;20250;-87
2022/05/26 02:50:18;;;;;;;8.70;6.18;;;11.60;99.90;;;;;;6215812;23;20144;-88
2022/05/26 02:53:09;;;;;;;8.20;5.35;;;11.80;99.90;;;;;;6189074;23;20192;-88
2022/05/26 02:56:11;;;;;;;9.10;5.60;;;11.60;99.90;;;;;;6215223;23;20466;-89
2022/05/26 02:58:57;;;;;;;9.38;5.82;;;11.60;99.90;;;;;;6188811;23;20182;-88
2022/05/26 03:01:36;;;;;;;9.70;6.57;;;11.60;99.90;;;;;;6215972;23;20159;-89
2022/05/26 03:04:46;;;;;;;13.75;5.90;;;11.70;99.90;;;;;;6215708;23;20144;-87
2022/05/26 03:07:22;;;;;;;8.90;6.00;;;11.60;99.90;;;;;;6095027;23;20159;-87
2022/05/26 03:09:48;;;;;;;8.02;6.07;;;11.60;99.90;;;;;;6172617;23;20163;-88
2022/05/26 03:12:23;;;;;;;11.50;6.57;;;11.60;99.90;;;;;;6189596;23;20183;-87
2022/05/26 03:14:49;;;;;;;12.73;6.95;;;11.70;99.90;;;;;;6215404;23;20198;-86
2022/05/26 03:17:14;;;;;;;9.95;6.43;;;11.70;99.90;;;;;;6189728;23;20156;-87
2022/05/26 03:19:40;;;;;;;11.15;6.80;;;11.70;99.90;;;;;;6216253;23;20152;-86
2022/05/26 03:22:05;;;;;;;11.82;6.82;;;11.70;99.90;;;;;;6164260;23;20183;-86
2022/05/26 03:24:31;;;;;;;9.15;6.15;;;11.70;99.90;;;;;;6215896;23;20236;-86
2022/05/26 03:26:57;;;;;;;8.07;5.53;;;11.80;99.90;;;;;;6189331;23;20162;-87
2022/05/26 03:29:22;;;;;;;10.77;6.70;;;11.80;99.90;;;;;;6215813;23;20239;-86
2022/05/26 03:31:48;;;;;;;10.30;6.25;;;11.80;99.90;;;;;;6188869;23;20205;-88
2022/05/26 03:42:26;;;;;;;10.25;5.97;;;11.90;99.90;;;;;;6196267;23;20179;-88
2022/05/26 03:44:52;;;;;;;7.85;5.88;;;11.90;99.90;;;;;;6170070;23;20198;-86
2022/05/26 03:47:18;;;;;;;9.05;5.88;;;11.90;99.90;;;;;;6218431;23;20159;-87
2022/05/26 03:49:44;;;;;;;8.50;5.85;;;;;;;;;;6189070;23;20156;-87
2022/05/26 03:52:10;;;;;;;9.73;6.22;;;12.00;99.90;;;;;;6189134;23;20273;-87
2022/05/26 03:54:36;;;;;;;10.10;5.82;;;12.20;99.90;;;;;;6215466;23;20556;-86
2022/05/26 03:57:03;;;;;;;11.50;6.90;;;11.90;99.90;;;;;;6189148;23;20572;-87
2022/05/26 03:59:30;;;;;;;8.00;5.50;;;11.90;99.90;;;;;;6189397;23;20183;-88
2022/05/26 04:01:55;;;;;;;11.52;7.32;;;12.00;99.90;;;;;;6189292;23;20164;-86
2022/05/26 04:04:21;;;;;;;9.18;6.10;;;11.90;99.90;;;;;;6141795;23;20167;-88
2022/05/26 04:06:48;;;;;;;10.20;6.07;;;11.90;99.90;;;;;;6216578;23;20160;-87
2022/05/26 04:09:14;;;;;;;12.48;7.28;;;11.90;99.90;;;;;;6190023;23;20199;-87
2022/05/26 04:11:40;;;;;;;9.80;6.60;;;12.00;99.90;;;;;;6189975;23;20192;-88
2022/05/26 04:14:05;;;;;;;10.93;6.47;;;12.00;99.90;;;;;;6191324;23;20279;-87
2022/05/26 04:16:31;;;;;;;8.73;5.90;;;12.00;99.90;;;;;;6168160;23;20159;-88
2022/05/26 04:18:56;;;;;;;9.68;6.53;;;12.00;99.90;;;;;;6168488;23;20717;-87
2022/05/26 04:21:22;;;;;;;9.98;6.20;;;12.00;99.90;;;;;;6172689;23;20163;-87
2022/05/26 04:23:50;;;;;;;8.77;5.40;;;12.10;99.90;;;;;;6198731;23;20165;-88
2022/05/26 04:26:16;;;;;;;13.75;7.50;;;12.20;99.90;;;;;;6202687;23;20171;-88
2022/05/26 04:28:42;;;;;;;9.13;5.93;;;12.10;99.90;;;;;;6228824;23;20243;-88
2022/05/26 04:31:07;;;;;;;12.55;6.72;;;12.20;99.90;;;;;;6205950;23;20399;-89
2022/05/26 04:33:33;;;;;;;9.52;6.35;;;11.90;99.90;;;;;;6225361;23;20202;-87
2022/05/26 04:36:03;;;;;;;11.85;6.60;;;12.30;99.90;;;;;;6165753;23;20497;-88
2022/05/26 04:38:29;;;;;;;10.00;6.57;;;12.30;99.90;;;;;;6190813;23;20152;-88
2022/05/26 04:41:00;;;;;;;10.85;5.90;;;12.40;99.90;;;;;;6191131;23;20286;-87
2022/05/26 04:43:26;;;;;;;10.77;6.93;;;12.50;99.90;;;;;;6217639;23;20156;-90
2022/05/26 04:45:52;;;;;;;11.68;6.60;;;12.50;99.90;;;;;;6191161;23;20178;-89
2022/05/26 04:48:21;;;;;;;10.57;6.45;;;12.60;99.90;;;;;;6217670;23;20583;-89
2022/05/26 04:50:48;;;;;;;10.88;7.43;;;12.50;99.90;;;;;;6191392;23;20164;-88
2022/05/26 04:53:14;;;;;;;9.35;6.18;;;12.60;99.90;;;;;;6165614;23;20191;-88
2022/05/26 04:55:40;;;;;;;12.85;7.45;;;12.80;99.90;;;;;;6191604;23;20156;-88
2022/05/26 04:58:05;;;;;;;12.50;7.43;;;12.50;99.90;;;;;;6190251;23;20588;-89
2022/05/26 05:00:32;;;;;;;9.73;6.95;;;;;;;;;;6166066;23;20160;-89
2022/05/26 05:02:57;;;;;;;12.02;6.88;;;12.70;99.90;;;;;;6190002;23;20175;-88
2022/05/26 05:05:23;;;;;;;9.18;5.88;;;12.70;99.90;;;;;;6190096;23;20156;-86
2022/05/26 05:07:49;;;;;;;11.65;6.72;;;12.80;99.90;;;;;;6216903;23;20235;-87
2022/05/26 05:10:14;;;;;;;11.07;7.78;;;12.80;99.90;;;;;;6165265;23;20246;-88
2022/05/26 05:12:40;;;;;;;11.35;7.47;;;12.30;99.90;;;;;;6189583;23;20575;-86
2022/05/26 05:15:15;;;;;;;13.55;7.82;;;12.90;99.90;;;;;;6165060;23;20579;-89
2022/05/26 05:17:41;;;;;;;11.27;8.10;;;13.10;99.90;;;;;;6215409;23;20175;-86
2022/05/26 05:20:07;;;;;;;11.07;6.90;;;13.10;99.90;;;;;;6189488;23;20479;-86
2022/05/26 05:23:02;;;;;;;11.38;7.55;;;13.10;99.90;;;;;;6189783;23;20155;-85
2022/05/26 05:25:34;;;;;;;10.13;7.00;;;13.30;99.90;;;;;;6185577;23;20160;-90
2022/05/26 05:28:09;;;;;;;9.20;6.53;;;14.70;99.90;;;;;;6218652;23;20136;-89
2022/05/26 05:30:52;;;;;;;8.73;6.22;;;13.30;99.90;;;;;;6191686;23;20155;-89
2022/05/26 05:33:23;;;;;;;10.65;6.53;;;13.30;99.90;;;;;;6221032;23;20182;-88
2022/05/26 05:35:55;;;;;;;7.57;5.65;;;13.30;99.90;;;;;;6192356;23;20160;-88
2022/05/26 05:38:22;;;;;;;9.68;6.47;;;13.30;99.90;;;;;;6219697;23;20144;-87
2022/05/26 05:40:48;;;;;;;8.40;6.00;;;13.20;99.90;;;;;;6218930;23;20164;-83
2022/05/26 05:43:14;;;;;;;11.32;7.00;;;13.30;99.90;;;;;;6220563;23;20195;-87
2022/05/26 05:45:40;;;;;;;9.77;6.50;;;13.40;99.90;;;;;;6141243;23;20189;-89
2022/05/26 05:48:11;;;;;;;12.00;6.47;;;13.50;99.90;;;;;;6190569;23;20156;-89
2022/05/26 05:50:37;;;;;;;8.32;6.05;;;13.40;99.90;;;;;;6192152;23;20155;-89
2022/05/26 05:53:03;;;;;;;10.18;6.65;;;13.60;99.90;;;;;;6169448;23;20572;-88
2022/05/26 05:55:32;;;;;;;9.77;5.70;;;13.80;99.90;;;;;;6167640;23;20160;-87
2022/05/26 05:57:58;;;;;;;10.85;6.45;;;13.80;99.90;;;;;;6166421;23;20160;-86
2022/05/26 06:07:20;;;;;;;7.22;5.25;;;13.80;99.90;;;;;;6244100;23;20167;-88
2022/05/26 06:09:46;;;;;;;9.02;5.72;;;13.80;99.90;;;;;;6244037;23;20151;-90
2022/05/26 06:12:20;;;;;;;7.53;5.63;;;14.00;99.90;;;;;;6193036;23;20222;-88
2022/05/26 06:14:46;;;;;;;8.48;5.47;;;14.00;99.90;;;;;;6243503;23;20176;-86
2022/05/26 06:17:33;;;;;;;8.52;5.70;;;14.50;99.90;;;;;;6193728;23;20160;-86
2022/05/26 06:19:58;;;;;;;7.03;5.07;;;14.30;99.90;;;;;;6244002;23;20263;-93
2022/05/26 06:22:24;;;;;;;9.23;5.63;;;14.40;99.90;;;;;;6244063;23;20179;-89
2022/05/26 06:24:52;;;;;;;5.32;4.72;;;14.60;99.90;;;;;;6166660;23;20166;-88
2022/05/26 06:30:08;;;;;;;6.07;4.70;;;14.70;99.90;;;;;;6221534;23;20147;-88
2022/05/26 06:38:39;;;;;;;7.18;4.95;;;14.70;99.90;;;;;;6221181;23;20154;-87
2022/05/26 06:43:52;;;;;;;7.90;5.43;;;15.20;99.90;;;;;;6215742;23;20150;-86
2022/05/26 06:46:18;;;;;;;7.32;5.45;;;15.20;99.90;;;;;;6164857;23;20157;-87
2022/05/26 06:48:45;;;;;;;6.85;5.03;;;15.30;99.90;;;;;;6189606;23;20205;-83
2022/05/26 06:51:11;;;;;;;6.10;4.80;;;15.30;99.90;;;;;;6215119;23;20159;-87
2022/05/26 06:53:38;;;;;;;6.00;4.55;;;15.30;99.90;;;;;;6215427;23;20470;-85
2022/05/26 06:56:04;;;;;;;7.97;5.38;;;15.40;99.90;;;;;;6165004;23;20160;-84
2022/05/26 06:58:31;;;;;;;4.97;3.88;;;15.30;99.90;;;;;;6188691;23;20151;-84
2022/05/26 07:00:57;;;;;;;5.72;4.28;;;15.70;99.90;;;;;;6165587;23;20159;-85
2022/05/26 07:03:23;;;;;;;7.18;4.13;;;15.70;99.90;;;;;;6164976;23;20188;-86
2022/05/26 07:05:52;;;;;;;6.03;4.03;;;15.80;99.90;;;;;;6216488;23;20583;-86
2022/05/26 07:08:20;;;;;;;6.60;4.68;;;12.50;99.90;;;;;;6166060;23;20160;-87
2022/05/26 07:10:50;;;;;;;5.30;3.88;;;15.90;99.90;;;;;;6166045;23;20156;-88
2022/05/26 07:13:26;;;;;;;;;;;;;;;;;;;;;
2022/05/26 07:16:04;;;;;;;5.20;4.10;;;15.90;99.90;;;;;;6192641;23;20210;-84
2022/05/26 07:18:31;;;;;;;5.25;3.92;;;16.10;99.90;;;;;;6166382;23;20578;-85
2022/05/26 07:21:04;;;;;;;5.50;4.00;;;16.40;99.90;;;;;;6215807;23;20202;-86
2022/05/26 07:23:34;;;;;;;4.57;4.07;;;16.30;99.90;;;;;;6175221;23;20168;-86
2022/05/26 07:26:13;;;;;;;3.83;3.25;;;16.40;99.90;;;;;;6189766;23;20171;-85
2022/05/26 07:28:44;;;;;;;4.82;3.22;;;16.50;99.90;;;;;;6192404;23;20531;-88
2022/05/26 07:31:16;;;;;;;5.10;3.90;;;16.70;99.90;;;;;;6193180;23;20194;-88
2022/05/26 07:33:47;;;;;;;4.07;3.38;;;16.90;99.90;;;;;;6191208;23;20164;-87
2022/05/26 07:41:59;;;;;;;3.13;2.70;;;17.30;99.90;;;;;;6216620;23;20156;-88
2022/05/26 07:44:37;;;;;;;;;;;;;;;;;;;;;
2022/05/26 07:47:08;;;;;;;3.70;2.97;;;17.30;99.90;;;;;;6220753;23;20227;-88
2022/05/26 07:49:43;;;;;;;4.40;3.10;;;17.40;99.90;;;;;;6193215;23;20152;-88
2022/05/26 07:52:30;;;;;;;6.07;3.22;;;16.20;99.90;;;;;;6196131;23;20626;-89
2022/05/26 07:55:08;;;;;;;;;;;;;;;;;;;;;
2022/05/26 07:58:12;;;;;;;4.53;3.10;;;17.40;99.90;;;;;;6222095;23;20155;-87
2022/05/26 08:00:39;;;;;;;4.93;2.72;;;17.60;99.90;;;;;;6219851;23;20164;-88
2022/05/26 08:03:08;;;;;;;3.45;2.97;;;17.60;99.90;;;;;;6194306;23;20167;-88
2022/05/26 08:05:37;;;;;;;4.43;2.67;;;19.90;99.90;;;;;;6220534;23;20148;-88
2022/05/26 08:08:11;;;;;;;3.05;2.80;;;17.80;99.90;;;;;;6220895;23;20175;-88
2022/05/26 08:10:40;;;;;;;3.35;3.00;;;;;;;;;;6220841;23;20140;-86
2022/05/26 08:13:10;;;;;;;2.38;2.17;;;18.00;99.90;;;;;;6222084;23;20202;-89
2022/05/26 08:16:05;;;;;;;;;;;;;;;;;;;;;
2022/05/26 08:18:50;;;;;;;2.85;2.47;;;18.40;99.90;;;;;;6199242;23;20230;-87
2022/05/26 08:21:18;;;;;;;4.55;2.67;;;;;;;;;;6224928;23;20148;-90
2022/05/26 08:23:52;;;;;;;3.67;2.20;;;;;;;;;;6209339;23;20152;-90
2022/05/26 08:26:20;;;;;;;4.75;2.30;;;;;;;;;;6234338;23;20219;-89
2022/05/26 08:28:49;;;;;;;3.30;2.03;;;;;;;;;;6193866;23;20462;-89
2022/05/26 08:31:15;;;;;;;1.85;1.65;;;18.40;99.90;;;;;;6195162;23;20156;-89
2022/05/26 08:33:45;;;;;;;2.28;1.58;;;18.90;99.90;;;;;;6170797;23;20226;-88
2022/05/26 08:36:24;;;;;;;;;;;;;;;;;;;;;
2022/05/26 08:38:52;;;;;;;2.67;2.03;;;18.80;99.90;;;;;;6193007;23;20588;-90
2022/05/26 08:41:23;;;;;;;1.88;1.70;;;18.70;99.90;;;;;;6191228;23;20153;-87
2022/05/26 08:44:29;;;;;;;1.77;1.50;;;18.90;99.90;;;;;;6165798;23;20144;-87
2022/05/26 08:47:14;;;;;;;1.45;1.35;;;18.90;99.90;;;;;;6118976;23;20165;-87
2022/05/26 08:49:47;;;;;;;2.70;1.90;;;19.00;99.90;;;;;;6190690;23;20136;-88
2022/05/26 08:52:19;;;;;;;1.48;1.38;;;19.00;99.90;;;;;;6165768;23;20266;-88
2022/05/26 08:54:58;;;;;;;1.85;1.48;;;18.90;99.90;;;;;;6197259;23;20179;-88
2022/05/26 08:57:30;;;;;;;1.50;1.40;;;18.90;99.90;;;;;;6164041;23;20153;-87
2022/05/26 08:59:56;;;;;;;2.97;1.83;;;18.90;99.90;;;;;;6192308;23;20137;-86
2022/05/26 09:02:35;;;;;;;2.58;2.03;;;19.00;99.90;;;;;;6192305;23;20152;-86
2022/05/26 09:05:10;;;;;;;2.15;1.85;;;19.20;99.90;;;;;;6164210;23;20180;-86
2022/05/26 09:13:21;;;;;;;4.00;1.77;;;;;;;;;;6190351;23;20188;-88
2022/05/26 09:15:50;;;;;;;3.63;2.20;;;;;;;;;;6189589;23;20161;-84
2022/05/26 09:18:23;;;;;;;2.38;1.77;;;19.30;99.90;;;;;;6163587;23;20164;-88
2022/05/26 09:21:02;;;;;;;;;;;;;;;;;;;;;
2022/05/26 09:23:32;;;;;;;1.50;1.40;;;19.90;99.90;;;;;;6191536;23;20212;-87
2022/05/26 09:26:03;;;;;;;1.50;1.17;;;19.40;99.90;;;;;;6193637;23;20137;-87
2022/05/26 09:28:45;;;;;;;1.25;1.15;;;19.70;99.90;;;;;;6193095;23;20161;-87
2022/05/26 09:31:41;;;;;;;1.75;1.52;;;19.70;99.90;;;;;;6192834;23;20148;-87
2022/05/26 09:34:18;;;;;;;1.38;1.15;;;20.80;99.90;;;;;;6169494;23;20157;-88
2022/05/26 09:36:53;;;;;;;1.90;1.30;;;20.20;99.90;;;;;;6193806;23;20137;-86
2022/05/26 09:39:45;;;;;;;1.77;1.15;;;20.30;99.70;;;;;;6169296;23;20163;-87
2022/05/26 09:42:19;;;;;;;1.42;1.33;;;20.10;97.40;;;;;;6161436;23;20168;-86
2022/05/26 09:47:47;;;;;;;1.70;1.00;;;19.90;96.20;;;;;;6191900;23;20227;-87
2022/05/26 09:50:41;;;;;;;1.63;1.10;;;19.60;98.10;;;;;;6164527;23;20583;-88
2022/05/26 09:53:21;;;;;;;2.05;1.17;;;19.80;99.90;;;;;;6165908;23;20264;-88
2022/05/26 09:55:54;;;;;;;1.65;1.15;;;20.10;99.10;;;;;;6165486;23;20195;-88
2022/05/26 09:58:43;;;;;;;1.42;1.15;;;20.10;99.90;;;;;;6194476;23;20133;-87
2022/05/26 10:01:26;;;;;;;2.10;1.02;;;20.20;99.90;;;;;;6143918;23;20348;-88
2022/05/26 10:04:16;;;;;;;1.23;0.93;;;20.50;95.30;;;;;;6165572;23;20157;-87
2022/05/26 10:06:47;;;;;;;3.50;1.50;;;21.90;96.10;;;;;;6162330;23;20165;-86
2022/05/26 10:09:40;;;;;;;1.00;0.90;;;20.50;93.00;;;;;;6164376;23;20157;-86
2022/05/26 10:12:59;;;;;;;0.80;0.80;;;20.80;93.60;;;;;;6192510;23;20188;-88
2022/05/26 10:15:40;;;;;;;1.40;1.20;;;20.80;93.50;;;;;;6135919;23;20160;-88
2022/05/26 10:18:47;;;;;;;1.35;1.10;;;21.00;94.60;;;;;;6166005;23;20159;-88
2022/05/26 10:21:28;;;;;;;1.33;0.90;;;21.00;92.80;;;;;;6088548;23;20166;-88
2022/05/26 10:24:06;;;;;;;2.53;0.80;;;20.80;90.10;;;;;;6062709;23;20163;-87
2022/05/26 10:26:52;;;;;;;0.85;0.85;;;20.70;89.50;;;;;;6126191;23;20145;-88
2022/05/26 10:29:41;;;;;;;0.88;0.88;;;20.90;90.90;;;;;;6170781;23;20498;-89
2022/05/26 10:32:20;;;;;;;2.38;0.93;;;20.70;91.10;;;;;;6192736;23;20195;-89
2022/05/26 10:35:04;;;;;;;1.25;1.15;;;20.60;91.30;;;;;;6193956;23;20140;-90
2022/05/26 10:38:11;;;;;;;0.88;0.88;;;21.40;92.30;;;;;;6166434;23;20161;-90
2022/05/26 10:40:51;;;;;;;0.90;0.90;;;20.60;90.70;;;;;;6163646;23;20160;-88
2022/05/26 10:43:29;;;;;;;1.30;0.82;;;20.80;91.90;;;;;;6189191;23;20145;-89
2022/05/26 10:45:57;;;;;;;1.10;1.00;;;20.80;92.00;;;;;;6191168;23;20623;-90
2022/05/26 10:48:41;;;;;;;1.10;1.00;;;21.10;92.10;;;;;;6191685;23;20236;-88
2022/05/26 10:51:17;;;;;;;1.20;1.10;;;21.30;90.50;;;;;;6163514;23;20164;-89
2022/05/26 10:54:21;;;;;;;2.40;1.00;;;21.10;88.30;;;;;;6190872;23;20220;-89
2022/05/26 10:57:13;;;;;;;1.88;1.15;;;21.20;90.00;;;;;;6128924;23;20160;-88
2022/05/26 10:59:46;;;;;;;0.80;0.80;;;21.80;87.20;;;;;;6150092;23;20247;-88
2022/05/26 11:02:49;;;;;;;1.23;0.82;;;21.40;87.60;;;;;;6192589;23;20156;-88
2022/05/26 11:05:45;;;;;;;0.85;0.85;;;21.90;88.70;;;;;;6151497;23;20160;-88
2022/05/26 11:08:26;;;;;;;1.30;0.90;;;21.80;85.20;;;;;;6187773;23;20186;-86
2022/05/26 11:11:09;;;;;;;0.88;0.80;;;21.80;82.50;;;;;;6162063;23;20195;-87
2022/05/26 11:13:40;;;;;;;0.60;0.60;;;21.70;81.80;;;;;;6192420;23;20223;-87
2022/05/26 11:19:40;;;;;;;0.80;0.80;;;21.60;74.60;;;;;;6190094;23;20198;-87
2022/05/26 11:22:08;;;;;;;1.45;0.90;;;21.50;75.80;;;;;;6167643;23;20152;-86
2022/05/26 11:24:34;;;;;;;0.82;0.80;;;21.30;75.90;;;;;;6141048;23;20568;-87
2022/05/26 11:27:11;;;;;;;0.70;0.70;;;21.40;74.30;;;;;;6195765;23;20133;-86
2022/05/26 11:29:58;;;;;;;1.05;0.70;;;21.70;74.30;;;;;;6202372;23;20140;-88
2022/05/26 11:38:15;;;;;;;0.85;0.82;;;21.90;74.10;;;;;;6194568;23;20156;-89
2022/05/26 11:40:54;;;;;;;0.55;0.52;;;22.00;71.90;;;;;;6140285;23;20160;-89
2022/05/26 11:43:25;;;;;;;1.38;0.90;;;22.00;71.10;;;;;;6165266;23;20157;-87
2022/05/26 11:45:53;;;;;;;0.60;0.60;;;22.00;72.50;;;;;;6161543;23;20153;-88
2022/05/26 11:48:33;;;;;;;0.75;0.57;;;22.00;68.90;;;;;;6196814;23;20179;-88
2022/05/26 11:51:23;;;;;;;2.28;0.75;;;21.50;68.90;;;;;;6164024;23;20164;-87
2022/05/26 11:53:52;;;;;;;0.90;0.85;;;22.00;70.50;;;;;;6165095;23;20247;-88
2022/05/26 11:56:28;;;;;;;0.70;0.70;;;22.10;69.30;;;;;;6188107;23;20157;-86
2022/05/26 11:59:26;;;;;;;0.63;0.63;;;21.90;68.30;;;;;;6161373;23;20160;-85
2022/05/26 12:02:15;;;;;;;0.70;0.70;;;21.90;71.10;;;;;;6162512;23;20484;-83
2022/05/26 12:04:43;;;;;;;0.70;0.70;;;21.90;70.40;;;;;;6165792;23;20156;-87
2022/05/26 12:07:14;;;;;;;2.13;1.20;;;21.80;71.60;;;;;;6166492;23;20156;-87
2022/05/26 12:10:06;;;;;;;1.70;0.93;;;21.50;68.30;;;;;;6171946;23;20164;-89
2022/05/26 12:12:35;;;;;;;2.38;1.02;;;21.10;73.30;;;;;;6109626;23;20197;-87
2022/05/26 12:15:14;;;;;;;0.98;0.85;;;21.00;74.00;;;;;;6142337;23;20158;-84
2022/05/26 12:17:44;;;;;;;1.38;1.20;;;20.80;75.80;;;;;;6152006;23;20161;-88
2022/05/26 12:20:12;;;;;;;1.17;1.08;;;20.80;77.40;;;;;;6177533;23;20137;-88
2022/05/26 12:22:41;;;;;;;1.10;1.00;;;21.40;77.30;;;;;;6158059;23;20137;-88
2022/05/26 12:32:07;;;;;;;1.75;0.90;;;21.20;73.00;;;;;;6213551;23;20155;-89
2022/05/26 12:34:46;;;;;;;1.45;1.30;;;21.40;74.70;;;;;;6179831;23;20149;-88
2022/05/26 12:37:30;;;;;;;1.77;1.20;;;21.60;72.10;;;;;;6214966;23;20143;-88
2022/05/26 12:40:37;;;;;;;3.13;1.30;;;21.80;75.00;;;;;;6215291;23;20152;-86
2022/05/26 12:43:15;;;;;;;1.20;1.10;;;21.90;71.30;;;;;;6187369;23;20155;-89
2022/05/26 12:46:19;;;;;;;4.60;1.00;;;22.00;69.90;;;;;;6212829;23;20133;-87
2022/05/26 12:49:05;;;;;;;4.63;1.60;;;22.40;68.30;;;;;;6188931;23;20160;-85
2022/05/26 12:51:39;;;;;;;3.05;1.10;;;22.00;70.00;;;;;;6183633;23;20225;-84
2022/05/26 12:54:10;;;;;;;1.30;1.20;;;22.10;69.40;;;;;;6146802;23;20161;-87
2022/05/26 12:56:57;;;;;;;0.93;0.85;;;22.00;70.30;;;;;;6197432;23;20176;-86
2022/05/26 12:59:32;;;;;;;0.88;0.70;;;21.70;70.50;;;;;;6167571;23;20156;-85
2022/05/26 13:01:58;;;;;;;1.08;0.68;;;21.70;70.00;;;;;;6194949;23;20140;-86
2022/05/26 13:04:32;;;;;;;1.13;0.80;;;21.50;69.70;;;;;;6165923;23;20156;-86
2022/05/26 13:07:04;;;;;;;1.27;0.85;;;21.50;70.50;;;;;;6163859;23;20587;-89
2022/05/26 13:09:35;;;;;;;0.80;0.70;;;21.50;70.80;;;;;;6189235;23;20137;-89
2022/05/26 13:12:04;;;;;;;4.43;0.82;;;21.60;70.80;;;;;;6189371;23;20181;-86
2022/05/26 13:14:44;;;;;;;2.38;1.10;;;21.40;70.30;;;;;;6188564;23;20160;-87
2022/05/26 13:17:10;;;;;;;0.65;0.65;;;21.00;71.00;;;;;;6163044;23;20515;-84
2022/05/26 13:19:54;;;;;;;1.55;0.80;;;21.00;73.20;;;;;;6190631;23;20231;-89
2022/05/26 13:22:36;;;;;;;1.35;0.70;;;20.90;73.70;;;;;;6162817;23;20156;-85
2022/05/26 13:25:08;;;;;;;1.10;0.93;;;21.10;74.10;;;;;;6162126;23;20208;-89
2022/05/26 13:27:49;;;;;;;0.70;0.70;;;21.20;74.10;;;;;;6162874;23;20161;-86
2022/05/26 13:33:11;;;;;;;0.70;0.70;;;21.30;71.60;;;;;;6192582;23;20219;-87
2022/05/26 13:35:42;;;;;;;1.95;0.60;;;21.30;72.10;;;;;;6165435;23;20248;-88
2022/05/26 13:38:30;;;;;;;0.63;0.63;;;21.20;72.80;;;;;;6176258;23;20164;-86
2022/05/26 13:40:57;;;;;;;0.50;0.50;;;21.30;72.00;;;;;;6204309;23;20149;-88
2022/05/26 13:43:24;;;;;;;1.25;0.82;;;21.20;71.80;;;;;;6197808;23;20159;-84
2022/05/26 13:45:51;;;;;;;0.52;0.50;;;21.20;72.00;;;;;;6197503;23;20152;-87
2022/05/26 13:48:29;;;;;;;2.65;0.93;;;21.20;70.80;;;;;;6177258;23;20165;-87
2022/05/26 13:51:17;;;;;;;0.43;0.43;;;21.20;71.80;;;;;;6169143;23;20587;-91
2022/05/26 13:53:55;;;;;;;0.40;0.40;;;21.30;71.40;;;;;;6165715;23;20220;-91
2022/05/26 13:56:31;;;;;;;2.75;1.27;;;19.30;68.40;;;;;;6163979;23;20164;-87
2022/05/26 13:59:04;;;;;;;0.95;0.68;;;20.90;71.80;;;;;;6162322;23;20156;-87
2022/05/26 14:01:30;;;;;;;2.50;0.52;;;20.60;72.50;;;;;;6189921;23;20153;-89
2022/05/26 14:04:01;;;;;;;0.43;0.43;;;22.90;75.60;;;;;;6163866;23;20167;-86
2022/05/26 14:06:34;;;;;;;0.70;0.70;;;20.60;73.80;;;;;;6188502;23;20159;-89
2022/05/26 14:09:03;;;;;;;0.40;0.40;;;20.60;74.80;;;;;;6164136;23;20161;-89
2022/05/26 14:11:40;;;;;;;0.60;0.60;;;20.60;74.00;;;;;;6187813;23;20149;-87
2022/05/26 14:14:29;;;;;;;0.35;0.35;;;20.80;74.70;;;;;;6163073;23;20165;-88
2022/05/26 14:16:59;;;;;;;0.60;0.60;;;21.00;74.40;;;;;;6144274;23;20161;-87
2022/05/26 14:19:33;;;;;;;1.42;0.70;;;21.00;73.10;;;;;;6208946;23;20148;-87
2022/05/26 14:22:08;;;;;;;0.80;0.52;;;21.20;74.80;;;;;;6199904;23;20168;-89
2022/05/26 14:24:49;;;;;;;0.60;0.60;;;21.20;74.60;;;;;;6166638;23;20688;-88
2022/05/26 14:27:27;;;;;;;1.10;0.68;;;19.90;73.80;;;;;;6168567;23;20160;-90
2022/05/26 14:30:23;;;;;;;0.45;0.45;;;21.70;79.60;;;;;;6168148;23;20157;-90
2022/05/26 14:32:52;;;;;;;0.88;0.77;;;;;;;;;;6173307;23;20187;-88
2022/05/26 14:35:20;;;;;;;0.50;0.50;;;20.70;74.50;;;;;;6165120;23;20167;-90